createdAt,value
2022-09-01T17:41:05.502Z,1.15
2022-09-01T17:44:00.038Z,1.40
2022-09-01T17:46:54.051Z,1.45
2022-09-01T17:49:49.318Z,1.35
2022-09-01T17:52:52.684Z,1.20
2022-09-01T17:55:47.319Z,1.15
2022-09-01T17:58:46.010Z,1.52
2022-09-01T18:01:38.952Z,1.20
2022-09-01T18:04:40.612Z,1.20
2022-09-01T18:07:40.752Z,1.60
2022-09-01T18:10:34.794Z,1.35
2022-09-01T18:13:51.869Z,2.00
2022-09-01T18:16:50.377Z,1.42
2022-09-01T18:19:45.271Z,1.58
2022-09-01T18:22:39.148Z,1.30
2022-09-01T18:25:43.777Z,1.50
2022-09-01T18:28:33.690Z,1.20
2022-09-01T18:31:37.696Z,0.80
2022-09-01T18:34:35.080Z,1.20
2022-09-01T18:37:30.486Z,1.50
2022-09-01T18:40:23.971Z,2.47
2022-09-01T18:43:19.278Z,3.75
2022-09-01T18:46:13.220Z,5.55
2022-09-01T18:49:10.452Z,4.60
2022-09-01T18:52:09.554Z,4.35
2022-09-01T18:55:12.043Z,3.80
2022-09-01T18:58:06.984Z,3.30
2022-09-01T19:00:58.843Z,2.72
2022-09-01T19:03:50.626Z,2.45
2022-09-01T19:06:48.232Z,3.03
2022-09-01T19:09:42.534Z,2.28
2022-09-01T19:12:36.373Z,2.08
2022-09-01T19:15:32.006Z,2.15
2022-09-01T19:18:27.297Z,1.90
2022-09-01T19:21:22.266Z,1.77
2022-09-01T19:24:13.166Z,2.70
2022-09-01T19:27:11.051Z,3.65
2022-09-01T19:30:04.532Z,4.70
2022-09-01T19:32:53.508Z,4.50
2022-09-01T19:35:44.863Z,5.10
2022-09-01T19:38:33.469Z,5.00
2022-09-01T19:41:26.456Z,4.78
2022-09-01T19:44:22.370Z,4.50
2022-09-01T19:47:14.412Z,4.75
2022-09-01T19:50:09.238Z,4.78
2022-09-01T19:53:01.270Z,4.35
2022-09-01T19:55:52.663Z,5.00
2022-09-01T19:58:53.155Z,4.43
2022-09-01T20:01:47.577Z,3.97
2022-09-01T20:04:41.189Z,3.40
2022-09-01T20:07:33.329Z,2.72
2022-09-01T20:10:55.335Z,1.70
2022-09-01T20:13:58.458Z,1.50
2022-09-01T20:16:49.650Z,1.50
2022-09-01T20:19:45.843Z,1.50
2022-09-01T20:22:40.483Z,1.30
2022-09-01T20:25:33.859Z,1.13
2022-09-01T20:28:30.952Z,1.10
2022-09-01T20:31:25.085Z,1.35
2022-09-01T20:34:19.853Z,0.88
2022-09-01T20:37:12.639Z,1.23
2022-09-01T20:40:05.710Z,1.90
2022-09-01T20:43:06.618Z,2.10
2022-09-01T20:45:55.189Z,1.10
2022-09-01T20:48:43.887Z,1.08
2022-09-01T20:51:48.031Z,1.65
2022-09-01T20:54:42.506Z,1.77
2022-09-01T20:57:44.219Z,3.10
2022-09-01T21:00:36.976Z,3.90
2022-09-01T21:03:35.957Z,4.57
2022-09-01T21:06:30.446Z,5.90
2022-09-01T21:09:25.817Z,4.63
2022-09-01T21:12:19.868Z,3.38
2022-09-01T21:15:19.040Z,3.08
2022-09-01T21:18:19.313Z,3.45
2022-09-01T21:21:12.650Z,2.42
2022-09-01T21:24:01.173Z,2.72
2022-09-01T21:26:52.155Z,2.25
2022-09-01T21:29:51.629Z,2.20
2022-09-01T21:32:40.594Z,2.90
2022-09-01T21:35:29.600Z,3.38
2022-09-01T21:38:18.316Z,3.67
2022-09-01T21:41:12.831Z,3.22
2022-09-01T21:44:03.452Z,2.13
2022-09-01T21:46:52.025Z,1.48
2022-09-01T21:49:40.758Z,2.28
2022-09-01T21:52:29.496Z,2.13
2022-09-01T21:55:22.739Z,1.90
2022-09-01T21:58:12.004Z,2.13
2022-09-01T22:01:02.776Z,2.40
2022-09-01T22:03:51.326Z,2.05
2022-09-01T22:06:40.521Z,1.65
2022-09-01T22:09:29.374Z,1.60
2022-09-01T22:12:17.947Z,1.60
2022-09-01T22:15:09.121Z,1.20
2022-09-01T22:17:59.175Z,1.50
2022-09-01T22:20:48.167Z,1.20
2022-09-01T22:23:37.775Z,1.67
2022-09-01T22:26:28.354Z,1.60
2022-09-01T22:29:17.553Z,1.42
2022-09-01T22:32:06.362Z,1.33
2022-09-01T22:34:56.313Z,1.30
2022-09-01T22:37:45.148Z,1.23
2022-09-01T22:40:36.195Z,1.20
2022-09-01T22:43:25.695Z,1.17
2022-09-01T22:46:14.987Z,1.17
2022-09-01T22:49:04.804Z,1.00
2022-09-01T22:51:55.491Z,1.15
2022-09-01T22:54:44.116Z,1.20
2022-09-01T22:57:32.723Z,0.85
2022-09-01T23:00:21.412Z,1.10
2022-09-01T23:03:12.452Z,1.05
2022-09-01T23:06:09.233Z,0.85
2022-09-01T23:09:00.732Z,0.75
2022-09-01T23:11:50.482Z,1.45
2022-09-01T23:14:39.015Z,1.02
2022-09-01T23:17:27.637Z,0.98
2022-09-01T23:20:16.818Z,0.73
2022-09-01T23:23:06.573Z,1.10
2022-09-01T23:25:56.516Z,0.82
2022-09-01T23:28:46.708Z,0.70
2022-09-01T23:31:37.280Z,0.90
2022-09-01T23:34:27.096Z,1.27
2022-09-01T23:37:15.643Z,1.02
2022-09-01T23:40:05.381Z,1.05
2022-09-01T23:42:55.349Z,0.73
2022-09-01T23:45:45.232Z,0.95
2022-09-01T23:48:33.840Z,0.80
2022-09-01T23:51:23.830Z,0.68
2022-09-01T23:54:13.318Z,1.27
2022-09-01T23:57:02.156Z,0.60
2022-09-01T23:59:52.077Z,0.90
